Ncc Najd — HZAK — position and weather

sailwx.info

Track history (hours):
 
Tides and Currents Weather Stations Pressure Air Temp Water Temp Dewpoint Dewpoint Depression Visibility Wind Speed Wind Dir Waves Ship Positions

Ncc Najd

Last reported at 2017-Sep-18 00:56 UTC. Time now 2017-Sep-26 16:46 UTC.
Position N 01°18' E 103°21'.
Warning: this ship's position is 8 days out of date.

Length 183 m; draft 7.8 m.

Type: Tanker. MMSI: 403579000.

Date/timePositionNaut miles runAvg speedWind from/ knotsBaromVisibWave heightAir tempDewpointWater temp
2017-Sep-18 00:56N 01°18' E 103°21'613.0
2017-Sep-18 00:30N 01°14' E 103°25'713.0
2017-Sep-17 23:59N 01°12' E 103°32'613.3
2017-Sep-17 23:30N 01°12' E 103°38'4 7.0
2017-Sep-17 23:00N 01°12' E 103°41'0 0.0
2017-Sep-17 22:30N 01°12' E 103°41'0 0.0
2017-Sep-17 21:57N 01°12' E 103°41'0 0.0
2017-Sep-17 21:30N 01°12' E 103°41'0 0.1
2017-Sep-17 21:00N 01°12' E 103°41'0 0.0
2017-Sep-17 20:30N 01°12' E 103°41'0 0.0
2017-Sep-17 19:57N 01°12' E 103°41'0 0.0
2017-Sep-17 19:30N 01°12' E 103°41'0 0.0
2017-Sep-17 18:54N 01°12' E 103°41'0 0.0
2017-Sep-17 18:30N 01°12' E 103°41'0 0.0
2017-Sep-17 17:57N 01°12' E 103°41'0 0.0
2017-Sep-17 17:30N 01°12' E 103°41'0 0.0
2017-Sep-17 17:00N 01°12' E 103°41'0 0.0
2017-Sep-17 16:30N 01°12' E 103°41'0 0.1
2017-Sep-17 15:57N 01°12' E 103°41'0 0.5
2017-Sep-17 15:30N 01°12' E 103°41'1 3.0
2017-Sep-17 15:01N 01°11' E 103°40'3 6.6
2017-Sep-17 14:30N 01°09' E 103°43'4 7.8
2017-Sep-17 14:00N 01°10' E 103°47'713.1
2017-Sep-17 13:30N 01°13' E 103°53'714.0
2017-Sep-17 13:00N 01°15' E 103°60'714.2
2017-Sep-17 12:29N 01°16' E 104°07'  
2017-Sep-12 22:38N 22°22' E 119°54'516.2
2017-Sep-12 22:19N 22°27' E 119°54'516.4
2017-Sep-12 22:00N 22°32' E 119°54'815.8
2017-Sep-12 21:30N 22°40' E 119°54'815.9
2017-Sep-12 21:00N 22°48' E 119°54'  
2017-Sep-08 09:31N 36°55' E 126°06'1 8.3
2017-Sep-08 09:26N 36°54' E 126°06'  
Track history (hours):
 
Tides and Currents Weather Stations Pressure Air Temp Water Temp Dewpoint Dewpoint Depression Visibility Wind Speed Wind Dir Waves Ship Positions

Ncc Najd

Last reported at 2017-Sep-18 00:56 UTC. Time now 2017-Sep-26 16:46 UTC.
Position N 01°18' E 103°21'.
Warning: this ship's position is 8 days out of date.

Length 183 m; draft 7.8 m.

Type: Tanker. MMSI: 403579000.

Date/timePositionNaut miles runAvg speedWind from/ knotsBaromVisibWave heightAir tempDewpointWater temp
2017-Sep-18 00:56N 01°18' E 103°21'613.0
2017-Sep-18 00:30N 01°14' E 103°25'713.0
2017-Sep-17 23:59N 01°12' E 103°32'613.3
2017-Sep-17 23:30N 01°12' E 103°38'4 7.0
2017-Sep-17 23:00N 01°12' E 103°41'0 0.0
2017-Sep-17 22:30N 01°12' E 103°41'0 0.0
2017-Sep-17 21:57N 01°12' E 103°41'0 0.0
2017-Sep-17 21:30N 01°12' E 103°41'0 0.1
2017-Sep-17 21:00N 01°12' E 103°41'0 0.0
2017-Sep-17 20:30N 01°12' E 103°41'0 0.0
2017-Sep-17 19:57N 01°12' E 103°41'0 0.0
2017-Sep-17 19:30N 01°12' E 103°41'0 0.0
2017-Sep-17 18:54N 01°12' E 103°41'0 0.0
2017-Sep-17 18:30N 01°12' E 103°41'0 0.0
2017-Sep-17 17:57N 01°12' E 103°41'0 0.0
2017-Sep-17 17:30N 01°12' E 103°41'0 0.0
2017-Sep-17 17:00N 01°12' E 103°41'0 0.0
2017-Sep-17 16:30N 01°12' E 103°41'0 0.1
2017-Sep-17 15:57N 01°12' E 103°41'0 0.5
2017-Sep-17 15:30N 01°12' E 103°41'1 3.0
2017-Sep-17 15:01N 01°11' E 103°40'3 6.6
2017-Sep-17 14:30N 01°09' E 103°43'4 7.8
2017-Sep-17 14:00N 01°10' E 103°47'713.1
2017-Sep-17 13:30N 01°13' E 103°53'714.0
2017-Sep-17 13:00N 01°15' E 103°60'714.2
2017-Sep-17 12:29N 01°16' E 104°07'  
2017-Sep-12 22:38N 22°22' E 119°54'516.2
2017-Sep-12 22:19N 22°27' E 119°54'516.4
2017-Sep-12 22:00N 22°32' E 119°54'815.8
2017-Sep-12 21:30N 22°40' E 119°54'815.9
2017-Sep-12 21:00N 22°48' E 119°54'  
2017-Sep-08 09:31N 36°55' E 126°06'1 8.3
2017-Sep-08 09:26N 36°54' E 126°06'  

Dump ship's entire track history